sensor_id;sensor_type;location;lat;lon;timestamp;P1;durP1;ratioP1;P2;durP2;ratioP2
42600;SDS011;28229;48.856;9.088;2023-07-28T00:00:51;2.70;;;2.50;;
42600;SDS011;28229;48.856;9.088;2023-07-28T00:03:17;3.13;;;2.83;;
42600;SDS011;28229;48.856;9.088;2023-07-28T00:05:44;3.53;;;2.80;;
42600;SDS011;28229;48.856;9.088;2023-07-28T00:08:10;3.80;;;3.00;;
42600;SDS011;28229;48.856;9.088;2023-07-28T00:10:40;3.10;;;2.90;;
42600;SDS011;28229;48.856;9.088;2023-07-28T00:13:07;3.40;;;3.03;;
42600;SDS011;28229;48.856;9.088;2023-07-28T00:15:34;3.93;;;3.10;;
42600;SDS011;28229;48.856;9.088;2023-07-28T00:18:00;3.30;;;3.00;;
42600;SDS011;28229;48.856;9.088;2023-07-28T00:20:27;3.87;;;3.07;;
42600;SDS011;28229;48.856;9.088;2023-07-28T00:22:54;3.30;;;3.00;;
42600;SDS011;28229;48.856;9.088;2023-07-28T00:25:20;3.40;;;3.10;;
42600;SDS011;28229;48.856;9.088;2023-07-28T00:27:47;2.90;;;2.67;;
42600;SDS011;28229;48.856;9.088;2023-07-28T00:30:13;3.10;;;2.90;;
42600;SDS011;28229;48.856;9.088;2023-07-28T00:32:39;3.57;;;3.10;;
42600;SDS011;28229;48.856;9.088;2023-07-28T00:35:05;3.40;;;3.10;;
42600;SDS011;28229;48.856;9.088;2023-07-28T00:37:32;3.33;;;3.03;;
42600;SDS011;28229;48.856;9.088;2023-07-28T00:39:58;3.20;;;2.90;;
42600;SDS011;28229;48.856;9.088;2023-07-28T00:42:24;3.30;;;3.00;;
42600;SDS011;28229;48.856;9.088;2023-07-28T00:45:05;3.27;;;2.93;;
42600;SDS011;28229;48.856;9.088;2023-07-28T00:47:32;6.50;;;2.80;;
42600;SDS011;28229;48.856;9.088;2023-07-28T00:49:58;3.07;;;2.77;;
42600;SDS011;28229;48.856;9.088;2023-07-28T00:52:27;3.03;;;2.80;;
42600;SDS011;28229;48.856;9.088;2023-07-28T00:54:53;3.03;;;2.83;;
42600;SDS011;28229;48.856;9.088;2023-07-28T00:57:19;3.33;;;2.87;;
42600;SDS011;28229;48.856;9.088;2023-07-28T00:59:45;2.87;;;2.53;;
42600;SDS011;28229;48.856;9.088;2023-07-28T01:02:12;3.33;;;3.00;;
42600;SDS011;28229;48.856;9.088;2023-07-28T01:04:52;3.80;;;2.83;;
42600;SDS011;28229;48.856;9.088;2023-07-28T01:10:10;3.47;;;2.60;;
42600;SDS011;28229;48.856;9.088;2023-07-28T01:12:40;3.30;;;3.00;;
42600;SDS011;28229;48.856;9.088;2023-07-28T01:15:06;3.13;;;2.90;;
42600;SDS011;28229;48.856;9.088;2023-07-28T01:17:33;4.90;;;2.87;;
42600;SDS011;28229;48.856;9.088;2023-07-28T01:20:02;4.10;;;3.20;;
42600;SDS011;28229;48.856;9.088;2023-07-28T01:28:32;3.43;;;2.50;;
42600;SDS011;28229;48.856;9.088;2023-07-28T01:31:06;4.13;;;2.97;;
42600;SDS011;28229;48.856;9.088;2023-07-28T01:33:33;4.10;;;2.70;;
42600;SDS011;28229;48.856;9.088;2023-07-28T01:36:00;5.23;;;3.00;;
42600;SDS011;28229;48.856;9.088;2023-07-28T01:38:27;3.20;;;2.90;;
42600;SDS011;28229;48.856;9.088;2023-07-28T01:40:54;3.23;;;2.93;;
42600;SDS011;28229;48.856;9.088;2023-07-28T01:43:20;2.97;;;2.77;;
42600;SDS011;28229;48.856;9.088;2023-07-28T01:45:47;3.90;;;3.20;;
42600;SDS011;28229;48.856;9.088;2023-07-28T01:48:13;4.27;;;2.83;;
42600;SDS011;28229;48.856;9.088;2023-07-28T01:50:39;3.03;;;2.80;;
42600;SDS011;28229;48.856;9.088;2023-07-28T01:53:05;3.87;;;2.83;;
42600;SDS011;28229;48.856;9.088;2023-07-28T01:55:33;3.00;;;2.80;;
42600;SDS011;28229;48.856;9.088;2023-07-28T01:58:00;3.20;;;2.73;;
42600;SDS011;28229;48.856;9.088;2023-07-28T02:00:28;4.90;;;3.20;;
42600;SDS011;28229;48.856;9.088;2023-07-28T02:02:54;3.20;;;2.90;;
42600;SDS011;28229;48.856;9.088;2023-07-28T02:05:21;2.70;;;2.50;;
42600;SDS011;28229;48.856;9.088;2023-07-28T02:07:47;3.20;;;2.83;;
42600;SDS011;28229;48.856;9.088;2023-07-28T02:10:13;3.13;;;2.83;;
42600;SDS011;28229;48.856;9.088;2023-07-28T02:12:40;4.40;;;3.10;;
42600;SDS011;28229;48.856;9.088;2023-07-28T02:15:06;3.47;;;3.20;;
42600;SDS011;28229;48.856;9.088;2023-07-28T02:17:33;3.13;;;2.93;;
42600;SDS011;28229;48.856;9.088;2023-07-28T02:20:00;4.20;;;2.80;;
42600;SDS011;28229;48.856;9.088;2023-07-28T02:22:28;3.17;;;2.87;;
42600;SDS011;28229;48.856;9.088;2023-07-28T02:24:55;3.87;;;2.93;;
42600;SDS011;28229;48.856;9.088;2023-07-28T02:27:21;3.00;;;2.80;;
42600;SDS011;28229;48.856;9.088;2023-07-28T02:29:48;3.20;;;3.00;;
42600;SDS011;28229;48.856;9.088;2023-07-28T02:32:14;3.00;;;2.80;;
42600;SDS011;28229;48.856;9.088;2023-07-28T02:34:40;2.80;;;2.60;;
42600;SDS011;28229;48.856;9.088;2023-07-28T02:37:06;3.23;;;2.67;;
42600;SDS011;28229;48.856;9.088;2023-07-28T02:39:32;3.00;;;2.77;;
42600;SDS011;28229;48.856;9.088;2023-07-28T02:41:58;4.43;;;2.80;;
42600;SDS011;28229;48.856;9.088;2023-07-28T02:44:25;4.70;;;3.00;;
42600;SDS011;28229;48.856;9.088;2023-07-28T02:46:51;3.27;;;2.97;;
42600;SDS011;28229;48.856;9.088;2023-07-28T02:49:17;3.10;;;2.90;;
42600;SDS011;28229;48.856;9.088;2023-07-28T02:51:43;2.60;;;2.50;;
42600;SDS011;28229;48.856;9.088;2023-07-28T02:54:09;3.00;;;2.80;;
42600;SDS011;28229;48.856;9.088;2023-07-28T02:56:36;4.07;;;2.80;;
42600;SDS011;28229;48.856;9.088;2023-07-28T02:59:05;3.43;;;3.10;;
42600;SDS011;28229;48.856;9.088;2023-07-28T03:01:31;3.10;;;2.80;;
42600;SDS011;28229;48.856;9.088;2023-07-28T03:04:02;2.87;;;2.67;;
42600;SDS011;28229;48.856;9.088;2023-07-28T03:06:37;4.63;;;2.87;;
42600;SDS011;28229;48.856;9.088;2023-07-28T03:09:03;3.60;;;2.63;;
42600;SDS011;28229;48.856;9.088;2023-07-28T03:11:49;4.80;;;2.80;;
42600;SDS011;28229;48.856;9.088;2023-07-28T03:14:15;3.13;;;2.83;;
42600;SDS011;28229;48.856;9.088;2023-07-28T03:16:42;2.70;;;2.50;;
42600;SDS011;28229;48.856;9.088;2023-07-28T03:19:08;3.40;;;2.70;;
42600;SDS011;28229;48.856;9.088;2023-07-28T03:21:34;3.10;;;2.67;;
42600;SDS011;28229;48.856;9.088;2023-07-28T03:24:00;3.00;;;2.70;;
42600;SDS011;28229;48.856;9.088;2023-07-28T03:26:26;3.40;;;2.90;;
42600;SDS011;28229;48.856;9.088;2023-07-28T03:28:54;2.87;;;2.67;;
42600;SDS011;28229;48.856;9.088;2023-07-28T03:31:20;3.40;;;3.10;;
42600;SDS011;28229;48.856;9.088;2023-07-28T03:33:46;3.37;;;2.90;;
42600;SDS011;28229;48.856;9.088;2023-07-28T03:36:13;3.30;;;3.00;;
42600;SDS011;28229;48.856;9.088;2023-07-28T03:38:42;3.23;;;2.93;;
42600;SDS011;28229;48.856;9.088;2023-07-28T03:41:09;3.10;;;2.90;;
42600;SDS011;28229;48.856;9.088;2023-07-28T03:43:35;3.23;;;2.87;;
42600;SDS011;28229;48.856;9.088;2023-07-28T03:46:01;3.00;;;2.80;;
42600;SDS011;28229;48.856;9.088;2023-07-28T03:48:27;3.17;;;2.87;;
42600;SDS011;28229;48.856;9.088;2023-07-28T03:50:54;3.60;;;3.00;;
42600;SDS011;28229;48.856;9.088;2023-07-28T03:53:20;3.07;;;2.60;;
42600;SDS011;28229;48.856;9.088;2023-07-28T03:55:46;3.80;;;2.93;;
42600;SDS011;28229;48.856;9.088;2023-07-28T03:58:12;2.83;;;2.53;;
42600;SDS011;28229;48.856;9.088;2023-07-28T04:00:38;2.80;;;2.60;;
42600;SDS011;28229;48.856;9.088;2023-07-28T04:03:04;2.93;;;2.73;;
42600;SDS011;28229;48.856;9.088;2023-07-28T04:05:31;3.93;;;2.60;;
42600;SDS011;28229;48.856;9.088;2023-07-28T04:07:57;2.80;;;2.60;;
42600;SDS011;28229;48.856;9.088;2023-07-28T04:10:23;3.10;;;2.80;;
42600;SDS011;28229;48.856;9.088;2023-07-28T04:12:49;3.33;;;2.80;;
42600;SDS011;28229;48.856;9.088;2023-07-28T04:15:16;4.13;;;3.20;;
42600;SDS011;28229;48.856;9.088;2023-07-28T04:17:53;3.40;;;3.10;;
42600;SDS011;28229;48.856;9.088;2023-07-28T04:20:19;4.67;;;3.20;;
42600;SDS011;28229;48.856;9.088;2023-07-28T04:22:46;3.60;;;3.30;;
42600;SDS011;28229;48.856;9.088;2023-07-28T04:25:13;3.87;;;3.10;;
42600;SDS011;28229;48.856;9.088;2023-07-28T04:27:44;3.90;;;3.20;;
42600;SDS011;28229;48.856;9.088;2023-07-28T04:30:10;3.60;;;3.30;;
42600;SDS011;28229;48.856;9.088;2023-07-28T04:32:37;4.03;;;3.43;;
42600;SDS011;28229;48.856;9.088;2023-07-28T04:35:10;3.13;;;2.87;;
42600;SDS011;28229;48.856;9.088;2023-07-28T04:37:50;3.70;;;3.33;;
42600;SDS011;28229;48.856;9.088;2023-07-28T04:40:25;4.03;;;3.17;;
42600;SDS011;28229;48.856;9.088;2023-07-28T04:42:51;3.77;;;3.40;;
42600;SDS011;28229;48.856;9.088;2023-07-28T04:45:19;3.33;;;2.97;;
42600;SDS011;28229;48.856;9.088;2023-07-28T04:47:46;3.60;;;3.30;;
42600;SDS011;28229;48.856;9.088;2023-07-28T04:50:13;3.23;;;3.00;;
42600;SDS011;28229;48.856;9.088;2023-07-28T04:52:58;3.67;;;3.37;;
42600;SDS011;28229;48.856;9.088;2023-07-28T04:55:41;3.97;;;3.57;;
42600;SDS011;28229;48.856;9.088;2023-07-28T04:58:17;3.20;;;2.90;;
42600;SDS011;28229;48.856;9.088;2023-07-28T05:00:47;4.37;;;3.37;;
42600;SDS011;28229;48.856;9.088;2023-07-28T05:03:14;3.60;;;3.30;;
42600;SDS011;28229;48.856;9.088;2023-07-28T05:05:48;4.47;;;3.87;;
42600;SDS011;28229;48.856;9.088;2023-07-28T05:08:14;5.00;;;3.60;;
42600;SDS011;28229;48.856;9.088;2023-07-28T05:10:41;3.70;;;3.40;;
42600;SDS011;28229;48.856;9.088;2023-07-28T05:13:12;4.93;;;3.40;;
42600;SDS011;28229;48.856;9.088;2023-07-28T05:15:44;4.97;;;3.33;;
42600;SDS011;28229;48.856;9.088;2023-07-28T05:18:19;3.80;;;3.47;;
42600;SDS011;28229;48.856;9.088;2023-07-28T05:21:20;4.57;;;3.83;;
42600;SDS011;28229;48.856;9.088;2023-07-28T05:23:47;4.17;;;3.80;;
42600;SDS011;28229;48.856;9.088;2023-07-28T05:26:14;4.77;;;4.00;;
42600;SDS011;28229;48.856;9.088;2023-07-28T05:28:40;4.53;;;3.93;;
42600;SDS011;28229;48.856;9.088;2023-07-28T05:31:06;4.67;;;4.10;;
42600;SDS011;28229;48.856;9.088;2023-07-28T05:33:33;5.90;;;4.60;;
42600;SDS011;28229;48.856;9.088;2023-07-28T05:36:02;5.50;;;4.10;;
42600;SDS011;28229;48.856;9.088;2023-07-28T05:38:29;5.10;;;4.10;;
42600;SDS011;28229;48.856;9.088;2023-07-28T05:40:59;4.37;;;3.97;;
42600;SDS011;28229;48.856;9.088;2023-07-28T05:43:27;4.60;;;4.00;;
42600;SDS011;28229;48.856;9.088;2023-07-28T05:45:59;4.90;;;4.50;;
42600;SDS011;28229;48.856;9.088;2023-07-28T05:48:27;4.50;;;4.10;;
42600;SDS011;28229;48.856;9.088;2023-07-28T05:50:53;5.10;;;4.60;;
42600;SDS011;28229;48.856;9.088;2023-07-28T05:53:20;4.97;;;4.47;;
42600;SDS011;28229;48.856;9.088;2023-07-28T05:55:49;7.57;;;4.43;;
42600;SDS011;28229;48.856;9.088;2023-07-28T05:58:16;4.47;;;4.07;;
42600;SDS011;28229;48.856;9.088;2023-07-28T06:00:42;5.20;;;4.70;;
42600;SDS011;28229;48.856;9.088;2023-07-28T06:03:16;5.30;;;4.80;;
42600;SDS011;28229;48.856;9.088;2023-07-28T06:06:02;5.13;;;4.63;;
42600;SDS011;28229;48.856;9.088;2023-07-28T06:08:29;5.60;;;5.10;;
42600;SDS011;28229;48.856;9.088;2023-07-28T06:10:55;5.00;;;4.60;;
42600;SDS011;28229;48.856;9.088;2023-07-28T06:13:21;7.63;;;4.53;;
42600;SDS011;28229;48.856;9.088;2023-07-28T06:15:48;6.67;;;4.90;;
42600;SDS011;28229;48.856;9.088;2023-07-28T06:18:14;6.90;;;4.77;;
42600;SDS011;28229;48.856;9.088;2023-07-28T06:20:43;4.50;;;4.10;;
42600;SDS011;28229;48.856;9.088;2023-07-28T06:23:09;4.97;;;4.50;;
42600;SDS011;28229;48.856;9.088;2023-07-28T06:25:36;5.10;;;4.60;;
42600;SDS011;28229;48.856;9.088;2023-07-28T06:28:10;4.67;;;4.10;;
42600;SDS011;28229;48.856;9.088;2023-07-28T06:30:37;4.60;;;4.00;;
42600;SDS011;28229;48.856;9.088;2023-07-28T06:33:05;4.47;;;4.07;;
42600;SDS011;28229;48.856;9.088;2023-07-28T06:35:32;4.73;;;4.27;;
42600;SDS011;28229;48.856;9.088;2023-07-28T06:38:00;4.20;;;3.90;;
42600;SDS011;28229;48.856;9.088;2023-07-28T06:40:27;4.03;;;3.73;;
42600;SDS011;28229;48.856;9.088;2023-07-28T06:42:53;4.57;;;4.17;;
42600;SDS011;28229;48.856;9.088;2023-07-28T06:45:21;4.80;;;4.30;;
42600;SDS011;28229;48.856;9.088;2023-07-28T06:47:47;3.70;;;3.40;;
42600;SDS011;28229;48.856;9.088;2023-07-28T06:50:14;6.07;;;4.50;;
42600;SDS011;28229;48.856;9.088;2023-07-28T06:52:41;4.80;;;4.40;;
42600;SDS011;28229;48.856;9.088;2023-07-28T06:55:10;4.70;;;4.20;;
42600;SDS011;28229;48.856;9.088;2023-07-28T06:57:36;4.70;;;4.27;;
42600;SDS011;28229;48.856;9.088;2023-07-28T07:00:03;5.07;;;4.57;;
42600;SDS011;28229;48.856;9.088;2023-07-28T07:02:31;4.93;;;4.43;;
42600;SDS011;28229;48.856;9.088;2023-07-28T07:04:57;4.47;;;4.07;;
42600;SDS011;28229;48.856;9.088;2023-07-28T07:07:26;5.50;;;4.03;;
42600;SDS011;28229;48.856;9.088;2023-07-28T07:09:56;4.80;;;3.80;;
42600;SDS011;28229;48.856;9.088;2023-07-28T07:12:24;4.33;;;3.93;;
42600;SDS011;28229;48.856;9.088;2023-07-28T07:14:53;4.73;;;4.20;;
42600;SDS011;28229;48.856;9.088;2023-07-28T07:17:19;4.93;;;4.53;;
42600;SDS011;28229;48.856;9.088;2023-07-28T07:19:45;4.17;;;3.73;;
42600;SDS011;28229;48.856;9.088;2023-07-28T07:22:12;4.47;;;3.87;;
42600;SDS011;28229;48.856;9.088;2023-07-28T07:24:40;4.50;;;4.10;;
42600;SDS011;28229;48.856;9.088;2023-07-28T07:27:09;4.00;;;3.60;;
42600;SDS011;28229;48.856;9.088;2023-07-28T07:29:38;4.03;;;3.60;;
42600;SDS011;28229;48.856;9.088;2023-07-28T07:32:06;4.17;;;3.77;;
42600;SDS011;28229;48.856;9.088;2023-07-28T07:34:35;3.97;;;3.67;;
42600;SDS011;28229;48.856;9.088;2023-07-28T07:37:04;6.10;;;4.20;;
42600;SDS011;28229;48.856;9.088;2023-07-28T07:39:38;4.43;;;4.00;;
42600;SDS011;28229;48.856;9.088;2023-07-28T07:42:09;4.60;;;4.20;;
42600;SDS011;28229;48.856;9.088;2023-07-28T07:44:38;4.53;;;4.00;;
42600;SDS011;28229;48.856;9.088;2023-07-28T07:47:13;4.90;;;3.90;;
42600;SDS011;28229;48.856;9.088;2023-07-28T07:49:41;6.70;;;4.10;;
42600;SDS011;28229;48.856;9.088;2023-07-28T07:52:12;4.07;;;3.77;;
42600;SDS011;28229;48.856;9.088;2023-07-28T07:54:38;4.77;;;4.37;;
42600;SDS011;28229;48.856;9.088;2023-07-28T07:57:04;4.20;;;3.60;;
42600;SDS011;28229;48.856;9.088;2023-07-28T07:59:31;7.13;;;3.93;;
42600;SDS011;28229;48.856;9.088;2023-07-28T08:01:59;5.07;;;4.47;;
42600;SDS011;28229;48.856;9.088;2023-07-28T08:04:26;5.17;;;4.20;;
42600;SDS011;28229;48.856;9.088;2023-07-28T08:06:53;5.57;;;4.17;;
42600;SDS011;28229;48.856;9.088;2023-07-28T08:09:20;4.83;;;3.90;;
42600;SDS011;28229;48.856;9.088;2023-07-28T08:11:46;5.27;;;3.67;;
42600;SDS011;28229;48.856;9.088;2023-07-28T08:14:13;4.30;;;3.90;;
42600;SDS011;28229;48.856;9.088;2023-07-28T08:16:39;5.47;;;3.43;;
42600;SDS011;28229;48.856;9.088;2023-07-28T08:19:05;4.00;;;3.60;;
42600;SDS011;28229;48.856;9.088;2023-07-28T08:21:31;3.40;;;3.10;;
42600;SDS011;28229;48.856;9.088;2023-07-28T08:24:02;3.57;;;3.23;;
42600;SDS011;28229;48.856;9.088;2023-07-28T08:26:29;3.73;;;3.43;;
42600;SDS011;28229;48.856;9.088;2023-07-28T08:28:56;3.33;;;3.07;;
42600;SDS011;28229;48.856;9.088;2023-07-28T08:31:22;3.33;;;3.10;;
42600;SDS011;28229;48.856;9.088;2023-07-28T08:33:48;4.27;;;3.03;;
42600;SDS011;28229;48.856;9.088;2023-07-28T08:36:15;3.23;;;2.93;;
42600;SDS011;28229;48.856;9.088;2023-07-28T08:38:41;2.97;;;2.47;;
42600;SDS011;28229;48.856;9.088;2023-07-28T08:41:07;2.63;;;2.43;;
42600;SDS011;28229;48.856;9.088;2023-07-28T08:43:33;2.60;;;2.40;;
42600;SDS011;28229;48.856;9.088;2023-07-28T08:45:59;2.90;;;2.50;;
42600;SDS011;28229;48.856;9.088;2023-07-28T08:48:25;2.63;;;2.43;;
42600;SDS011;28229;48.856;9.088;2023-07-28T08:50:52;2.70;;;2.30;;
42600;SDS011;28229;48.856;9.088;2023-07-28T08:53:18;2.20;;;2.00;;
42600;SDS011;28229;48.856;9.088;2023-07-28T08:55:45;2.23;;;2.10;;
42600;SDS011;28229;48.856;9.088;2023-07-28T08:58:20;2.33;;;2.13;;
42600;SDS011;28229;48.856;9.088;2023-07-28T09:00:52;2.13;;;1.93;;
42600;SDS011;28229;48.856;9.088;2023-07-28T09:03:18;2.37;;;2.17;;
42600;SDS011;28229;48.856;9.088;2023-07-28T09:05:45;1.60;;;1.50;;
42600;SDS011;28229;48.856;9.088;2023-07-28T09:08:12;3.57;;;2.60;;
42600;SDS011;28229;48.856;9.088;2023-07-28T09:10:46;3.30;;;2.77;;
42600;SDS011;28229;48.856;9.088;2023-07-28T09:13:17;2.20;;;2.00;;
42600;SDS011;28229;48.856;9.088;2023-07-28T09:15:45;2.97;;;1.80;;
42600;SDS011;28229;48.856;9.088;2023-07-28T09:18:14;1.50;;;1.40;;
42600;SDS011;28229;48.856;9.088;2023-07-28T09:20:42;2.03;;;1.93;;
42600;SDS011;28229;48.856;9.088;2023-07-28T09:23:10;1.93;;;1.80;;
42600;SDS011;28229;48.856;9.088;2023-07-28T09:25:37;1.87;;;1.60;;
42600;SDS011;28229;48.856;9.088;2023-07-28T09:28:04;1.70;;;1.60;;
42600;SDS011;28229;48.856;9.088;2023-07-28T09:30:47;1.87;;;1.70;;
42600;SDS011;28229;48.856;9.088;2023-07-28T09:33:30;4.30;;;2.63;;
42600;SDS011;28229;48.856;9.088;2023-07-28T09:36:06;2.93;;;2.60;;
42600;SDS011;28229;48.856;9.088;2023-07-28T09:38:35;13.60;;;7.53;;
42600;SDS011;28229;48.856;9.088;2023-07-28T09:41:03;5.67;;;2.40;;
42600;SDS011;28229;48.856;9.088;2023-07-28T09:43:34;2.27;;;1.97;;
42600;SDS011;28229;48.856;9.088;2023-07-28T09:46:03;2.97;;;2.53;;
42600;SDS011;28229;48.856;9.088;2023-07-28T09:48:30;2.50;;;2.27;;
42600;SDS011;28229;48.856;9.088;2023-07-28T09:50:58;1.80;;;1.70;;
42600;SDS011;28229;48.856;9.088;2023-07-28T09:53:32;1.73;;;1.63;;
42600;SDS011;28229;48.856;9.088;2023-07-28T09:56:01;2.00;;;1.50;;
42600;SDS011;28229;48.856;9.088;2023-07-28T09:58:28;2.93;;;1.97;;
42600;SDS011;28229;48.856;9.088;2023-07-28T10:01:00;1.80;;;1.70;;
42600;SDS011;28229;48.856;9.088;2023-07-28T10:03:27;1.70;;;1.60;;
42600;SDS011;28229;48.856;9.088;2023-07-28T10:05:54;2.47;;;2.27;;
42600;SDS011;28229;48.856;9.088;2023-07-28T10:08:21;2.77;;;1.70;;
42600;SDS011;28229;48.856;9.088;2023-07-28T10:10:47;2.00;;;1.90;;
42600;SDS011;28229;48.856;9.088;2023-07-28T10:13:20;2.47;;;1.53;;
42600;SDS011;28229;48.856;9.088;2023-07-28T10:15:49;2.53;;;1.73;;
42600;SDS011;28229;48.856;9.088;2023-07-28T10:18:19;2.20;;;1.60;;
42600;SDS011;28229;48.856;9.088;2023-07-28T10:20:46;2.20;;;1.70;;
42600;SDS011;28229;48.856;9.088;2023-07-28T10:23:15;1.73;;;1.63;;
42600;SDS011;28229;48.856;9.088;2023-07-28T10:25:43;1.60;;;1.50;;
42600;SDS011;28229;48.856;9.088;2023-07-28T10:28:27;1.60;;;1.50;;
42600;SDS011;28229;48.856;9.088;2023-07-28T10:30:57;1.50;;;1.40;;
42600;SDS011;28229;48.856;9.088;2023-07-28T10:38:38;1.50;;;1.30;;
42600;SDS011;28229;48.856;9.088;2023-07-28T10:41:10;1.50;;;1.40;;
42600;SDS011;28229;48.856;9.088;2023-07-28T10:43:39;1.70;;;1.60;;
42600;SDS011;28229;48.856;9.088;2023-07-28T10:46:07;1.80;;;1.40;;
42600;SDS011;28229;48.856;9.088;2023-07-28T10:48:35;1.73;;;1.50;;
42600;SDS011;28229;48.856;9.088;2023-07-28T10:51:03;1.73;;;1.63;;
42600;SDS011;28229;48.856;9.088;2023-07-28T10:53:31;1.50;;;1.40;;
42600;SDS011;28229;48.856;9.088;2023-07-28T10:55:58;1.40;;;1.30;;
42600;SDS011;28229;48.856;9.088;2023-07-28T10:58:25;1.43;;;1.33;;
42600;SDS011;28229;48.856;9.088;2023-07-28T11:00:51;1.40;;;1.30;;
42600;SDS011;28229;48.856;9.088;2023-07-28T11:03:21;3.97;;;1.40;;
42600;SDS011;28229;48.856;9.088;2023-07-28T11:05:48;1.20;;;1.20;;
42600;SDS011;28229;48.856;9.088;2023-07-28T11:08:25;1.20;;;1.20;;
42600;SDS011;28229;48.856;9.088;2023-07-28T11:10:51;1.13;;;1.10;;
42600;SDS011;28229;48.856;9.088;2023-07-28T11:13:18;1.17;;;1.17;;
42600;SDS011;28229;48.856;9.088;2023-07-28T11:15:44;1.10;;;1.10;;
42600;SDS011;28229;48.856;9.088;2023-07-28T11:18:11;1.23;;;1.13;;
42600;SDS011;28229;48.856;9.088;2023-07-28T11:20:41;1.40;;;1.30;;
42600;SDS011;28229;48.856;9.088;2023-07-28T11:23:22;1.13;;;1.13;;
42600;SDS011;28229;48.856;9.088;2023-07-28T11:25:49;1.47;;;1.37;;
42600;SDS011;28229;48.856;9.088;2023-07-28T11:28:16;1.30;;;1.30;;
42600;SDS011;28229;48.856;9.088;2023-07-28T11:30:42;1.43;;;1.20;;
42600;SDS011;28229;48.856;9.088;2023-07-28T11:33:09;1.30;;;1.20;;
42600;SDS011;28229;48.856;9.088;2023-07-28T11:35:39;1.33;;;1.30;;
42600;SDS011;28229;48.856;9.088;2023-07-28T11:38:06;1.20;;;1.10;;
42600;SDS011;28229;48.856;9.088;2023-07-28T11:40:33;1.40;;;1.30;;
42600;SDS011;28229;48.856;9.088;2023-07-28T11:43:00;1.70;;;1.60;;
42600;SDS011;28229;48.856;9.088;2023-07-28T11:45:27;1.57;;;1.47;;
42600;SDS011;28229;48.856;9.088;2023-07-28T11:50:34;1.37;;;1.27;;
42600;SDS011;28229;48.856;9.088;2023-07-28T11:53:03;1.70;;;1.50;;
42600;SDS011;28229;48.856;9.088;2023-07-28T11:55:30;1.93;;;1.83;;
42600;SDS011;28229;48.856;9.088;2023-07-28T11:57:56;1.70;;;1.60;;
42600;SDS011;28229;48.856;9.088;2023-07-28T12:00:29;1.60;;;1.50;;
42600;SDS011;28229;48.856;9.088;2023-07-28T12:03:13;1.83;;;1.60;;
42600;SDS011;28229;48.856;9.088;2023-07-28T12:05:40;2.37;;;1.70;;
42600;SDS011;28229;48.856;9.088;2023-07-28T12:08:08;1.73;;;1.63;;
42600;SDS011;28229;48.856;9.088;2023-07-28T12:10:34;1.70;;;1.60;;
42600;SDS011;28229;48.856;9.088;2023-07-28T12:13:04;2.40;;;1.90;;
42600;SDS011;28229;48.856;9.088;2023-07-28T12:15:42;1.90;;;1.80;;
42600;SDS011;28229;48.856;9.088;2023-07-28T12:20:40;3.57;;;2.10;;
42600;SDS011;28229;48.856;9.088;2023-07-28T12:23:08;1.70;;;1.60;;
42600;SDS011;28229;48.856;9.088;2023-07-28T12:25:37;2.77;;;1.90;;
42600;SDS011;28229;48.856;9.088;2023-07-28T12:28:03;1.93;;;1.83;;
42600;SDS011;28229;48.856;9.088;2023-07-28T12:30:30;1.93;;;1.83;;
42600;SDS011;28229;48.856;9.088;2023-07-28T12:32:56;2.20;;;2.00;;
42600;SDS011;28229;48.856;9.088;2023-07-28T12:35:22;2.87;;;1.90;;
42600;SDS011;28229;48.856;9.088;2023-07-28T12:37:49;2.13;;;1.93;;
42600;SDS011;28229;48.856;9.088;2023-07-28T12:40:17;2.00;;;1.90;;
42600;SDS011;28229;48.856;9.088;2023-07-28T12:42:45;2.10;;;2.00;;
42600;SDS011;28229;48.856;9.088;2023-07-28T12:45:13;2.30;;;2.10;;
42600;SDS011;28229;48.856;9.088;2023-07-28T12:47:42;3.80;;;2.10;;
42600;SDS011;28229;48.856;9.088;2023-07-28T12:50:09;1.90;;;1.80;;
42600;SDS011;28229;48.856;9.088;2023-07-28T12:52:36;2.10;;;2.00;;
42600;SDS011;28229;48.856;9.088;2023-07-28T12:55:03;2.13;;;2.03;;
42600;SDS011;28229;48.856;9.088;2023-07-28T12:57:31;2.20;;;2.00;;
42600;SDS011;28229;48.856;9.088;2023-07-28T12:59:58;2.40;;;2.10;;
42600;SDS011;28229;48.856;9.088;2023-07-28T13:02:25;2.03;;;1.93;;
42600;SDS011;28229;48.856;9.088;2023-07-28T13:04:51;2.33;;;2.13;;
42600;SDS011;28229;48.856;9.088;2023-07-28T13:07:17;2.23;;;2.10;;
42600;SDS011;28229;48.856;9.088;2023-07-28T13:09:44;2.33;;;2.13;;
42600;SDS011;28229;48.856;9.088;2023-07-28T13:12:11;2.50;;;2.30;;
42600;SDS011;28229;48.856;9.088;2023-07-28T13:14:37;2.80;;;2.60;;
42600;SDS011;28229;48.856;9.088;2023-07-28T13:17:03;3.17;;;2.50;;
42600;SDS011;28229;48.856;9.088;2023-07-28T13:19:30;2.77;;;2.40;;
42600;SDS011;28229;48.856;9.088;2023-07-28T13:21:56;2.40;;;2.20;;
42600;SDS011;28229;48.856;9.088;2023-07-28T13:24:24;2.90;;;2.50;;
42600;SDS011;28229;48.856;9.088;2023-07-28T13:26:50;3.13;;;2.40;;
42600;SDS011;28229;48.856;9.088;2023-07-28T13:29:19;3.13;;;2.60;;
42600;SDS011;28229;48.856;9.088;2023-07-28T13:31:45;3.53;;;2.70;;
42600;SDS011;28229;48.856;9.088;2023-07-28T13:34:11;4.10;;;2.80;;
42600;SDS011;28229;48.856;9.088;2023-07-28T13:36:38;2.97;;;2.47;;
42600;SDS011;28229;48.856;9.088;2023-07-28T13:39:04;2.63;;;2.40;;
42600;SDS011;28229;48.856;9.088;2023-07-28T13:41:30;2.90;;;2.60;;
42600;SDS011;28229;48.856;9.088;2023-07-28T13:43:56;3.10;;;2.80;;
42600;SDS011;28229;48.856;9.088;2023-07-28T13:46:22;3.77;;;2.37;;
42600;SDS011;28229;48.856;9.088;2023-07-28T13:48:48;2.50;;;2.30;;
42600;SDS011;28229;48.856;9.088;2023-07-28T13:51:17;2.77;;;2.37;;
42600;SDS011;28229;48.856;9.088;2023-07-28T13:53:43;2.60;;;2.40;;
42600;SDS011;28229;48.856;9.088;2023-07-28T13:56:09;4.93;;;3.00;;
42600;SDS011;28229;48.856;9.088;2023-07-28T13:58:35;3.73;;;2.83;;
42600;SDS011;28229;48.856;9.088;2023-07-28T14:01:03;6.30;;;3.07;;
42600;SDS011;28229;48.856;9.088;2023-07-28T14:03:30;3.60;;;2.60;;
42600;SDS011;28229;48.856;9.088;2023-07-28T14:05:56;3.73;;;2.77;;
42600;SDS011;28229;48.856;9.088;2023-07-28T14:08:22;4.90;;;2.80;;
42600;SDS011;28229;48.856;9.088;2023-07-28T14:10:48;3.47;;;3.17;;
42600;SDS011;28229;48.856;9.088;2023-07-28T14:13:14;2.80;;;2.60;;
42600;SDS011;28229;48.856;9.088;2023-07-28T14:15:40;4.23;;;3.33;;
42600;SDS011;28229;48.856;9.088;2023-07-28T14:18:06;4.63;;;3.07;;
42600;SDS011;28229;48.856;9.088;2023-07-28T14:20:33;3.97;;;3.13;;
42600;SDS011;28229;48.856;9.088;2023-07-28T14:23:01;3.27;;;3.03;;
42600;SDS011;28229;48.856;9.088;2023-07-28T14:25:27;4.13;;;3.23;;
42600;SDS011;28229;48.856;9.088;2023-07-28T14:27:53;3.40;;;3.10;;
42600;SDS011;28229;48.856;9.088;2023-07-28T14:30:19;3.80;;;3.23;;
42600;SDS011;28229;48.856;9.088;2023-07-28T14:32:46;3.30;;;3.00;;
42600;SDS011;28229;48.856;9.088;2023-07-28T14:35:12;3.20;;;2.90;;
42600;SDS011;28229;48.856;9.088;2023-07-28T14:37:38;3.47;;;3.20;;
42600;SDS011;28229;48.856;9.088;2023-07-28T14:40:04;3.30;;;3.00;;
42600;SDS011;28229;48.856;9.088;2023-07-28T14:42:31;3.30;;;3.00;;
42600;SDS011;28229;48.856;9.088;2023-07-28T14:44:58;3.90;;;3.13;;
42600;SDS011;28229;48.856;9.088;2023-07-28T14:47:30;4.00;;;2.97;;
42600;SDS011;28229;48.856;9.088;2023-07-28T14:49:56;3.07;;;2.87;;
42600;SDS011;28229;48.856;9.088;2023-07-28T14:52:22;3.57;;;3.07;;
42600;SDS011;28229;48.856;9.088;2023-07-28T14:54:49;3.43;;;3.13;;
42600;SDS011;28229;48.856;9.088;2023-07-28T14:57:15;3.40;;;3.10;;
42600;SDS011;28229;48.856;9.088;2023-07-28T14:59:41;3.60;;;3.30;;
42600;SDS011;28229;48.856;9.088;2023-07-28T15:02:07;3.37;;;3.07;;
42600;SDS011;28229;48.856;9.088;2023-07-28T15:04:33;3.73;;;3.07;;
42600;SDS011;28229;48.856;9.088;2023-07-28T15:06:59;3.50;;;3.20;;
42600;SDS011;28229;48.856;9.088;2023-07-28T15:09:26;3.53;;;3.03;;
42600;SDS011;28229;48.856;9.088;2023-07-28T15:11:52;3.37;;;3.17;;